createdAt,value
2022-11-23T00:01:19.785Z,97.91
2022-11-23T00:03:48.951Z,97.74
2022-11-23T00:06:16.948Z,97.67
2022-11-23T00:08:45.732Z,97.71
2022-11-23T00:11:12.851Z,97.50
2022-11-23T00:13:41.245Z,97.64
2022-11-23T00:16:14.072Z,97.60
2022-11-23T00:18:41.004Z,97.44
2022-11-23T00:21:09.824Z,97.66
2022-11-23T00:23:37.711Z,97.52
2022-11-23T00:26:05.583Z,97.57
2022-11-23T00:28:32.684Z,97.28
2022-11-23T00:30:59.724Z,97.29
2022-11-23T00:33:26.664Z,97.22
2022-11-23T00:36:05.749Z,97.32
2022-11-23T00:38:33.409Z,97.15
2022-11-23T00:41:00.992Z,96.96
2022-11-23T00:43:29.338Z,97.35
2022-11-23T00:46:08.201Z,97.05
2022-11-23T00:48:36.124Z,97.00
2022-11-23T00:51:05.565Z,97.23
2022-11-23T00:53:33.485Z,97.08
2022-11-23T00:56:00.502Z,97.19
2022-11-23T00:58:27.566Z,97.09
2022-11-23T01:01:13.179Z,97.19
2022-11-23T01:03:43.403Z,97.27
2022-11-23T01:06:13.483Z,97.21
2022-11-23T01:08:42.043Z,97.09
2022-11-23T01:11:12.667Z,97.16
2022-11-23T01:13:41.622Z,97.19
2022-11-23T01:16:17.194Z,96.89
2022-11-23T01:18:46.646Z,97.04
2022-11-23T01:21:13.723Z,97.21
2022-11-23T01:23:40.767Z,97.10
2022-11-23T01:26:09.804Z,97.06
2022-11-23T01:28:38.934Z,97.24
2022-11-23T01:31:10.603Z,97.29
2022-11-23T01:33:37.432Z,97.11
2022-11-23T01:36:18.848Z,97.19
2022-11-23T01:38:47.442Z,96.90
2022-11-23T01:41:20.828Z,97.31
2022-11-23T01:43:48.443Z,97.21
2022-11-23T01:46:15.391Z,97.27
2022-11-23T01:48:45.441Z,97.29
2022-11-23T01:51:16.763Z,97.18
2022-11-23T01:53:46.260Z,97.35
2022-11-23T01:56:20.445Z,97.27
2022-11-23T01:58:53.456Z,97.56
2022-11-23T02:01:20.518Z,97.53
2022-11-23T02:03:49.591Z,97.50
2022-11-23T02:06:21.657Z,97.83
2022-11-23T02:08:49.243Z,97.52
2022-11-23T02:11:17.424Z,97.75
2022-11-23T02:13:47.733Z,97.98
2022-11-23T02:16:15.147Z,97.76
2022-11-23T02:18:45.164Z,97.99
2022-11-23T02:21:12.924Z,97.93
2022-11-23T02:23:48.375Z,97.92
2022-11-23T02:26:21.309Z,98.12
2022-11-23T02:28:58.523Z,98.05
2022-11-23T02:31:25.567Z,98.00
2022-11-23T02:33:54.769Z,98.24
2022-11-23T02:37:06.511Z,98.30
2022-11-23T02:39:48.086Z,98.22
2022-11-23T02:42:15.170Z,97.94
2022-11-23T02:44:48.980Z,98.08
2022-11-23T02:47:16.514Z,98.42
2022-11-23T02:52:31.174Z,98.23
2022-11-23T02:54:58.095Z,98.09
2022-11-23T02:57:25.072Z,98.22
2022-11-23T02:59:52.044Z,98.01
2022-11-23T03:02:19.130Z,98.22
2022-11-23T03:04:47.165Z,97.96
2022-11-23T03:07:14.226Z,98.33
2022-11-23T03:09:41.413Z,98.10
2022-11-23T03:12:09.164Z,98.26
2022-11-23T03:14:36.185Z,98.28
2022-11-23T03:17:04.325Z,98.21
2022-11-23T03:19:36.804Z,98.18
2022-11-23T03:22:04.365Z,97.79
2022-11-23T03:24:31.885Z,97.79
2022-11-23T03:27:01.197Z,97.78
2022-11-23T03:29:28.861Z,97.77
2022-11-23T03:31:58.502Z,97.86
2022-11-23T03:34:25.517Z,97.60
2022-11-23T03:36:53.357Z,97.79
2022-11-23T03:39:20.581Z,97.61
2022-11-23T03:42:06.168Z,97.54
2022-11-23T03:44:34.982Z,97.33
2022-11-23T03:47:01.920Z,97.41
2022-11-23T03:49:29.612Z,97.19
2022-11-23T03:51:56.879Z,97.21
2022-11-23T03:54:23.921Z,97.34
2022-11-23T03:56:51.056Z,97.37
2022-11-23T03:59:18.522Z,97.36
2022-11-23T04:01:45.442Z,97.02
2022-11-23T04:04:20.576Z,97.28
2022-11-23T04:06:59.137Z,97.23
2022-11-23T04:09:35.541Z,97.09
2022-11-23T04:12:05.616Z,96.92
2022-11-23T04:14:36.270Z,97.19
2022-11-23T04:17:03.506Z,97.15
2022-11-23T04:19:31.346Z,96.95
2022-11-23T04:21:59.542Z,96.98
2022-11-23T04:24:29.221Z,97.00
2022-11-23T04:26:58.900Z,96.78
2022-11-23T04:29:25.897Z,96.79
2022-11-23T04:31:54.576Z,97.12
2022-11-23T04:34:22.326Z,96.95
2022-11-23T04:36:51.552Z,97.06
2022-11-23T04:39:22.251Z,97.17
2022-11-23T04:42:27.708Z,97.19
2022-11-23T04:44:58.663Z,96.98
2022-11-23T04:47:26.011Z,97.03
2022-11-23T04:49:55.699Z,96.68
2022-11-23T04:52:23.574Z,96.88
2022-11-23T04:54:51.148Z,96.70
2022-11-23T04:57:18.243Z,96.66
2022-11-23T04:59:46.210Z,96.89
2022-11-23T05:02:13.341Z,96.71
2022-11-23T05:04:48.079Z,96.61
2022-11-23T05:07:16.963Z,96.72
2022-11-23T05:09:48.894Z,96.66
2022-11-23T05:12:18.164Z,96.85
2022-11-23T05:14:45.101Z,96.90
2022-11-23T05:17:16.142Z,96.61
2022-11-23T05:19:45.455Z,96.92
2022-11-23T05:22:13.435Z,96.71
2022-11-23T05:24:41.775Z,96.75
2022-11-23T05:27:11.695Z,96.84
2022-11-23T05:29:39.413Z,96.75
2022-11-23T05:32:07.933Z,96.75
2022-11-23T05:34:35.377Z,97.09
2022-11-23T05:37:04.346Z,96.87
2022-11-23T05:39:31.844Z,96.76
2022-11-23T05:42:00.811Z,96.80
2022-11-23T05:44:38.364Z,96.63
2022-11-23T05:47:08.771Z,96.71
2022-11-23T05:49:38.184Z,96.70
2022-11-23T05:52:06.257Z,96.75
2022-11-23T05:54:34.654Z,96.96
2022-11-23T05:57:06.809Z,96.73
2022-11-23T05:59:40.164Z,96.55
2022-11-23T06:02:09.215Z,96.80
2022-11-23T06:04:36.503Z,96.87
2022-11-23T06:07:06.549Z,96.54
2022-11-23T06:09:45.538Z,96.53
2022-11-23T06:12:12.920Z,96.73
2022-11-23T06:14:39.996Z,96.63
2022-11-23T06:17:07.053Z,96.54
2022-11-23T06:19:38.635Z,96.42
2022-11-23T06:22:06.144Z,96.43
2022-11-23T06:24:38.689Z,96.61
2022-11-23T06:27:24.654Z,96.40
2022-11-23T06:29:52.697Z,96.32
2022-11-23T06:32:21.143Z,96.04
2022-11-23T06:34:48.131Z,96.36
2022-11-23T06:37:15.533Z,96.03
2022-11-23T06:39:45.885Z,95.94
2022-11-23T06:45:00.816Z,96.06
2022-11-23T06:47:30.867Z,95.77
2022-11-23T06:49:58.221Z,95.92
2022-11-23T06:52:28.772Z,95.87
2022-11-23T06:54:55.856Z,95.68
2022-11-23T06:57:24.693Z,95.74
2022-11-23T06:59:51.721Z,95.65
2022-11-23T07:02:24.642Z,95.77
2022-11-23T07:04:54.772Z,95.74
2022-11-23T07:07:21.974Z,95.69
2022-11-23T07:09:57.761Z,95.47
2022-11-23T07:12:51.680Z,95.40
2022-11-23T07:15:21.062Z,95.64
2022-11-23T07:17:50.414Z,95.53
2022-11-23T07:20:19.521Z,95.28
2022-11-23T07:22:47.108Z,95.39
2022-11-23T07:25:18.775Z,95.04
2022-11-23T07:27:45.775Z,95.04
2022-11-23T07:30:13.485Z,94.92
2022-11-23T07:32:40.492Z,94.75
2022-11-23T07:35:08.572Z,94.30
2022-11-23T07:37:38.120Z,94.63
2022-11-23T07:40:06.193Z,94.39
2022-11-23T07:42:39.879Z,94.13
2022-11-23T07:45:12.325Z,94.20
2022-11-23T07:47:43.794Z,93.90
2022-11-23T07:50:13.310Z,93.64
2022-11-23T07:52:41.338Z,93.52
2022-11-23T07:55:09.027Z,93.11
2022-11-23T07:57:35.956Z,92.98
2022-11-23T08:00:03.855Z,92.81
2022-11-23T08:02:52.820Z,92.45
2022-11-23T08:05:26.746Z,92.48
2022-11-23T08:08:03.586Z,92.17
2022-11-23T08:10:33.375Z,91.83
2022-11-23T08:13:02.291Z,91.68
2022-11-23T08:15:29.469Z,91.24
2022-11-23T08:17:57.865Z,91.29
2022-11-23T08:20:26.056Z,91.14
2022-11-23T08:22:56.111Z,90.59
2022-11-23T08:25:24.759Z,90.61
2022-11-23T08:28:03.093Z,90.68
2022-11-23T08:30:32.372Z,90.26
2022-11-23T08:32:59.694Z,90.14
2022-11-23T08:35:26.668Z,89.68
2022-11-23T08:37:53.614Z,89.61
2022-11-23T08:40:25.111Z,89.50
2022-11-23T08:42:52.941Z,88.89
2022-11-23T08:45:20.968Z,88.88
2022-11-23T08:47:47.949Z,88.57
2022-11-23T08:50:15.374Z,87.99
2022-11-23T08:52:42.274Z,87.91
2022-11-23T08:55:09.273Z,87.70
2022-11-23T08:57:37.075Z,87.29
2022-11-23T09:00:05.944Z,87.11
2022-11-23T09:02:33.141Z,86.67
2022-11-23T09:05:01.073Z,86.42
2022-11-23T09:07:28.515Z,86.24
2022-11-23T09:09:55.529Z,86.03
2022-11-23T09:12:22.501Z,85.50
2022-11-23T09:14:49.374Z,85.53
2022-11-23T09:17:16.248Z,85.54
2022-11-23T09:19:43.258Z,85.68
2022-11-23T09:22:10.428Z,85.45
2022-11-23T09:24:37.647Z,85.52
2022-11-23T09:27:05.178Z,85.35
2022-11-23T09:29:32.104Z,85.09
2022-11-23T09:31:59.074Z,85.00
2022-11-23T09:34:26.012Z,84.93
2022-11-23T09:36:53.533Z,84.90
2022-11-23T09:39:20.497Z,84.95
2022-11-23T09:42:06.493Z,84.82
2022-11-23T09:44:39.497Z,84.95
2022-11-23T09:47:25.428Z,84.71
2022-11-23T09:50:07.723Z,84.47
2022-11-23T09:52:40.733Z,84.77
2022-11-23T09:55:16.184Z,84.50
2022-11-23T09:57:46.126Z,84.43
2022-11-23T10:00:17.893Z,84.29
2022-11-23T10:02:44.889Z,84.68
2022-11-23T10:05:26.334Z,84.37
2022-11-23T10:08:06.759Z,84.77
2022-11-23T10:10:39.054Z,84.96
2022-11-23T10:13:28.442Z,85.09
2022-11-23T10:16:29.999Z,85.17
2022-11-23T10:19:02.205Z,85.26
2022-11-23T10:22:00.514Z,85.07
2022-11-23T10:24:35.813Z,85.26
2022-11-23T10:27:03.441Z,85.43
2022-11-23T10:29:37.624Z,85.36
2022-11-23T10:32:26.893Z,85.61
2022-11-23T10:35:03.535Z,85.84
2022-11-23T10:37:32.346Z,86.02
2022-11-23T10:39:59.368Z,86.04
2022-11-23T10:42:33.954Z,86.24
2022-11-23T10:45:04.787Z,86.25
2022-11-23T10:47:52.015Z,86.44
2022-11-23T10:50:30.671Z,86.38
2022-11-23T10:53:01.466Z,86.16
2022-11-23T10:55:32.494Z,86.26
2022-11-23T10:58:00.584Z,86.11
2022-11-23T11:00:31.295Z,86.34
2022-11-23T11:02:59.781Z,86.57
2022-11-23T11:06:06.868Z,86.99
2022-11-23T11:08:21.182Z,87.14
2022-11-23T11:10:57.314Z,87.19
2022-11-23T11:13:30.442Z,87.56
2022-11-23T11:16:19.103Z,87.58
2022-11-23T11:18:46.024Z,87.79
2022-11-23T11:21:35.311Z,87.66
2022-11-23T11:24:06.009Z,88.18
2022-11-23T11:26:36.102Z,88.14
2022-11-23T11:29:05.545Z,88.57
2022-11-23T11:31:51.054Z,88.34
2022-11-23T11:34:24.462Z,88.35
2022-11-23T11:36:54.335Z,88.18
2022-11-23T11:39:32.907Z,88.46
2022-11-23T11:42:04.757Z,88.52
2022-11-23T11:44:37.126Z,88.39
2022-11-23T11:47:26.481Z,88.36
2022-11-23T11:49:58.039Z,88.59
2022-11-23T11:52:30.795Z,88.48
2022-11-23T11:55:22.841Z,88.94
2022-11-23T11:57:51.486Z,88.62
2022-11-23T12:00:20.673Z,88.58
2022-11-23T12:03:02.670Z,88.75
2022-11-23T12:05:50.027Z,88.56
2022-11-23T12:08:46.311Z,88.68
2022-11-23T12:11:13.831Z,88.43
2022-11-23T12:13:44.624Z,88.42
2022-11-23T12:17:10.253Z,88.33
2022-11-23T12:19:50.743Z,88.01
2022-11-23T12:22:45.176Z,88.04
2022-11-23T12:25:23.062Z,87.93
2022-11-23T12:27:53.054Z,87.55
2022-11-23T12:30:57.069Z,87.50
2022-11-23T12:33:34.026Z,87.75
2022-11-23T12:36:28.974Z,87.62
2022-11-23T12:39:28.420Z,87.17
2022-11-23T12:42:10.352Z,86.88
2022-11-23T12:44:46.902Z,86.84
2022-11-23T12:47:24.738Z,86.37
2022-11-23T12:49:58.739Z,86.12
2022-11-23T12:52:46.715Z,86.01
2022-11-23T12:55:30.067Z,85.75
2022-11-23T12:58:06.014Z,85.65
2022-11-23T13:00:40.089Z,85.46
2022-11-23T13:03:59.542Z,85.05
2022-11-23T13:06:29.347Z,84.76
2022-11-23T13:09:18.809Z,84.42
2022-11-23T13:12:02.858Z,84.12
2022-11-23T13:15:02.218Z,83.72
2022-11-23T13:17:53.055Z,83.26
2022-11-23T13:20:54.095Z,83.40
2022-11-23T13:23:23.693Z,83.27
2022-11-23T13:26:24.323Z,83.15
2022-11-23T13:28:54.016Z,83.07
2022-11-23T13:31:33.806Z,82.99
2022-11-23T13:34:06.663Z,82.83
2022-11-23T13:37:11.757Z,82.67
2022-11-23T13:39:47.980Z,82.53
2022-11-23T13:42:15.108Z,82.66
2022-11-23T13:44:42.051Z,82.44
2022-11-23T13:47:16.301Z,82.43
2022-11-23T13:49:52.507Z,82.40
2022-11-23T13:52:24.322Z,82.40
2022-11-23T13:55:07.164Z,82.61
2022-11-23T13:57:40.804Z,82.09
2022-11-23T14:00:45.516Z,82.22
2022-11-23T14:03:55.580Z,82.10
2022-11-23T14:06:41.482Z,82.06
2022-11-23T14:09:39.907Z,81.98
2022-11-23T14:12:27.538Z,82.12
2022-11-23T14:15:12.593Z,82.16
2022-11-23T14:18:04.175Z,82.06
2022-11-23T14:20:50.545Z,81.84
2022-11-23T14:23:33.626Z,82.09
2022-11-23T14:26:39.455Z,81.97
2022-11-23T14:29:31.827Z,81.92
2022-11-23T14:32:20.394Z,81.95
2022-11-23T14:34:50.495Z,81.88
2022-11-23T14:37:48.604Z,82.19
2022-11-23T14:40:28.654Z,82.29
2022-11-23T14:42:57.396Z,82.38
2022-11-23T14:45:30.315Z,82.55
2022-11-23T14:47:57.676Z,82.62
2022-11-23T14:50:29.466Z,83.05
2022-11-23T14:52:58.489Z,83.17
2022-11-23T14:55:29.581Z,83.03
2022-11-23T14:58:02.753Z,83.33
2022-11-23T15:00:40.577Z,83.22
2022-11-23T15:03:49.260Z,83.54
2022-11-23T15:06:17.740Z,83.56
2022-11-23T15:09:34.977Z,83.81
2022-11-23T15:12:48.727Z,83.75
2022-11-23T15:15:24.505Z,84.14
2022-11-23T15:18:02.680Z,84.12
2022-11-23T15:20:34.905Z,84.45
2022-11-23T15:23:03.238Z,84.49
2022-11-23T15:25:31.786Z,84.78
2022-11-23T15:27:58.825Z,84.89
2022-11-23T15:30:30.962Z,85.08
2022-11-23T15:33:06.613Z,85.25
2022-11-23T15:35:36.879Z,85.13
2022-11-23T15:38:12.015Z,85.39
2022-11-23T15:40:44.343Z,85.72
2022-11-23T15:43:18.156Z,85.83
2022-11-23T15:45:45.169Z,86.09
2022-11-23T15:48:27.358Z,86.36
2022-11-23T15:50:56.895Z,86.66
2022-11-23T15:53:49.463Z,86.68
2022-11-23T15:56:23.301Z,86.85
2022-11-23T15:58:52.419Z,87.22
2022-11-23T16:01:19.926Z,87.27
2022-11-23T16:04:01.140Z,87.61
2022-11-23T16:06:42.471Z,87.77
2022-11-23T16:09:51.867Z,87.60
2022-11-23T16:12:26.096Z,87.88
2022-11-23T16:14:55.374Z,87.90
2022-11-23T16:17:25.099Z,87.93
2022-11-23T16:19:54.816Z,88.06
2022-11-23T16:22:31.937Z,88.18
2022-11-23T16:25:09.295Z,88.56
2022-11-23T16:27:37.384Z,88.44
2022-11-23T16:30:05.023Z,88.64
2022-11-23T16:32:32.820Z,88.97
2022-11-23T16:35:19.496Z,88.81
2022-11-23T16:37:48.376Z,88.98
2022-11-23T16:40:15.779Z,89.53
2022-11-23T16:42:43.847Z,89.38
2022-11-23T16:45:11.463Z,89.62
2022-11-23T16:47:55.694Z,89.80
2022-11-23T16:50:24.253Z,89.89
2022-11-23T16:52:52.260Z,90.13
2022-11-23T16:55:19.382Z,90.27
2022-11-23T16:57:47.408Z,90.60
2022-11-23T17:00:20.914Z,90.40
2022-11-23T17:02:48.306Z,90.59
2022-11-23T17:05:17.237Z,90.67
2022-11-23T17:07:44.720Z,90.70
2022-11-23T17:10:16.514Z,90.81
2022-11-23T17:12:56.765Z,91.15
2022-11-23T17:15:25.375Z,91.19
2022-11-23T17:17:52.414Z,91.25
2022-11-23T17:20:22.067Z,91.32
2022-11-23T17:22:52.060Z,91.27
2022-11-23T17:25:19.948Z,91.58
2022-11-23T17:27:47.375Z,91.70
2022-11-23T17:30:22.147Z,91.70
2022-11-23T17:32:49.935Z,91.86
2022-11-23T17:35:18.206Z,92.02
2022-11-23T17:37:46.695Z,91.94
2022-11-23T17:40:16.415Z,92.00
2022-11-23T17:42:43.544Z,92.22
2022-11-23T17:45:12.118Z,92.29
2022-11-23T17:47:41.136Z,92.16
2022-11-23T17:50:13.785Z,92.11
2022-11-23T17:52:44.395Z,92.33
2022-11-23T17:55:12.655Z,92.51
2022-11-23T17:57:39.865Z,92.27
2022-11-23T18:00:15.842Z,92.65
2022-11-23T18:02:43.537Z,92.67
2022-11-23T18:05:15.256Z,92.54
2022-11-23T18:07:47.073Z,92.95
2022-11-23T18:10:14.175Z,92.92
2022-11-23T18:12:41.223Z,92.68
2022-11-23T18:15:09.328Z,92.82
2022-11-23T18:17:36.910Z,92.97
2022-11-23T18:20:04.464Z,93.18
2022-11-23T18:22:31.426Z,93.29
2022-11-23T18:24:58.797Z,93.32
2022-11-23T18:27:26.494Z,93.42
2022-11-23T18:29:53.464Z,93.31
2022-11-23T18:32:20.414Z,93.42
2022-11-23T18:34:47.377Z,93.53
2022-11-23T18:37:14.666Z,93.75
2022-11-23T18:39:41.695Z,93.58
2022-11-23T18:42:09.488Z,93.59
2022-11-23T18:44:36.637Z,93.59
2022-11-23T18:47:03.694Z,93.55
2022-11-23T18:49:30.896Z,93.70
2022-11-23T18:51:58.718Z,93.75
2022-11-23T18:54:26.139Z,93.47
2022-11-23T18:56:53.697Z,93.79
2022-11-23T18:59:42.517Z,93.70
2022-11-23T19:02:10.627Z,93.92
2022-11-23T19:04:43.296Z,93.58
2022-11-23T19:07:10.787Z,93.56
2022-11-23T19:09:38.235Z,93.78
2022-11-23T19:12:07.665Z,93.56
2022-11-23T19:14:34.636Z,93.72
2022-11-23T19:17:02.064Z,93.53
2022-11-23T19:19:29.057Z,93.41
2022-11-23T19:21:55.937Z,93.44
2022-11-23T19:24:23.446Z,93.29
2022-11-23T19:26:50.957Z,93.34
2022-11-23T19:29:32.781Z,93.50
2022-11-23T19:32:00.121Z,93.57
2022-11-23T19:34:27.546Z,93.56
2022-11-23T19:36:54.981Z,93.71
2022-11-23T19:39:22.676Z,93.59
2022-11-23T19:41:49.775Z,93.83
2022-11-23T19:44:16.735Z,93.84
2022-11-23T19:46:43.778Z,94.03
2022-11-23T19:49:11.402Z,94.07
2022-11-23T19:51:40.504Z,93.88
2022-11-23T19:54:10.586Z,94.05
2022-11-23T19:56:37.855Z,94.19
2022-11-23T19:59:06.579Z,94.10
2022-11-23T20:01:34.291Z,94.30
2022-11-23T20:04:09.561Z,93.83
2022-11-23T20:06:41.548Z,94.03
2022-11-23T20:09:09.914Z,93.94
2022-11-23T20:11:40.551Z,93.77
2022-11-23T20:14:08.267Z,93.82
2022-11-23T20:16:35.933Z,93.77
2022-11-23T20:19:07.064Z,93.73
2022-11-23T20:21:36.316Z,93.89
2022-11-23T20:24:07.328Z,93.78
2022-11-23T20:26:37.533Z,94.00
2022-11-23T20:29:06.503Z,94.15
2022-11-23T20:31:34.377Z,94.26
2022-11-23T20:34:06.469Z,94.05
2022-11-23T20:36:36.088Z,94.03
2022-11-23T20:39:07.557Z,94.28
2022-11-23T20:41:38.076Z,94.34
2022-11-23T20:44:07.926Z,94.19
2022-11-23T20:49:22.014Z,94.10
2022-11-23T20:51:49.441Z,94.00
2022-11-23T20:54:16.574Z,94.23
2022-11-23T20:56:43.545Z,94.06
2022-11-23T20:59:13.482Z,94.04
2022-11-23T21:01:41.067Z,94.28
2022-11-23T21:04:09.522Z,94.35
2022-11-23T21:06:39.270Z,94.54
2022-11-23T21:09:11.665Z,94.37
2022-11-23T21:11:57.341Z,94.45
2022-11-23T21:14:28.078Z,94.49
2022-11-23T21:16:59.061Z,94.65
2022-11-23T21:19:30.434Z,94.53
2022-11-23T21:21:59.294Z,94.41
2022-11-23T21:24:27.035Z,94.43
2022-11-23T21:26:55.176Z,94.35
2022-11-23T21:29:22.712Z,94.62
2022-11-23T21:31:50.301Z,94.71
2022-11-23T21:34:20.453Z,94.61
2022-11-23T21:36:50.283Z,94.53
2022-11-23T21:39:17.864Z,94.63
2022-11-23T21:41:47.735Z,94.64
2022-11-23T21:44:14.814Z,94.60
2022-11-23T21:46:42.589Z,94.73
2022-11-23T21:49:10.893Z,94.72
2022-11-23T21:51:38.372Z,94.78
2022-11-23T21:54:08.104Z,94.55
2022-11-23T21:56:35.054Z,94.55
2022-11-23T21:59:02.150Z,94.81
2022-11-23T22:01:32.565Z,94.41
2022-11-23T22:04:09.139Z,94.56
2022-11-23T22:06:38.653Z,94.72
2022-11-23T22:09:07.853Z,94.50
2022-11-23T22:11:36.245Z,94.72
2022-11-23T22:14:06.174Z,94.65
2022-11-23T22:16:35.171Z,94.82
2022-11-23T22:19:03.615Z,94.62
2022-11-23T22:21:35.934Z,94.74
2022-11-23T22:24:04.735Z,94.76
2022-11-23T22:26:31.694Z,94.79
2022-11-23T22:29:06.364Z,95.05
2022-11-23T22:31:35.332Z,95.00
2022-11-23T22:34:04.432Z,95.09
2022-11-23T22:36:31.717Z,95.05
2022-11-23T22:39:04.254Z,95.00
2022-11-23T22:41:37.532Z,94.61
2022-11-23T22:44:06.727Z,94.78
2022-11-23T22:46:33.802Z,94.56
2022-11-23T22:49:02.037Z,94.66
2022-11-23T22:51:30.092Z,94.67
2022-11-23T22:54:00.277Z,94.78
2022-11-23T22:56:28.962Z,94.41
2022-11-23T22:58:56.427Z,94.27
2022-11-23T23:01:26.822Z,94.62
2022-11-23T23:03:58.541Z,94.64
2022-11-23T23:06:28.738Z,94.70
2022-11-23T23:08:58.097Z,94.62
2022-11-23T23:11:28.367Z,94.53
2022-11-23T23:13:55.621Z,94.49
2022-11-23T23:16:22.876Z,94.45
2022-11-23T23:18:50.405Z,94.48
2022-11-23T23:21:20.249Z,94.70
2022-11-23T23:23:49.263Z,94.21
2022-11-23T23:26:18.148Z,94.36
2022-11-23T23:28:45.626Z,94.29
2022-11-23T23:31:16.375Z,94.41
2022-11-23T23:33:44.838Z,94.26
2022-11-23T23:36:17.344Z,94.23
2022-11-23T23:38:44.549Z,94.24
2022-11-23T23:41:13.014Z,94.32
2022-11-23T23:43:40.342Z,94.50
2022-11-23T23:46:09.806Z,94.32
2022-11-23T23:48:38.762Z,94.38
2022-11-23T23:51:20.259Z,94.24
2022-11-23T23:53:47.661Z,94.54
2022-11-23T23:56:17.768Z,94.35
2022-11-23T23:58:45.054Z,94.55
